Time;durP1;ratioP1;P1;durP2;ratioP2;P2;SDS_P1;SDS_P2;PMS_P1;PMS_P2;Temp;Humidity;BMP_temperature;BMP_pressure;BME280_temperature;BME280_humidity;BME280_pressure;Samples;Min_cycle;Max_cycle;Signal;HPM_P1;HPM_P2
2021/05/08 00:01:55;;;;;;;;;;;19.80;48.50;;;;;;4965524;28;19926;-79
2021/05/08 00:04:22;;;;;;;;;;;19.80;48.60;;;;;;4949411;28;19926;-78
2021/05/08 00:06:50;;;;;;;;;;;19.80;48.50;;;;;;4966554;28;20697;-78
2021/05/08 00:09:20;;;;;;;;;;;19.80;48.50;;;;;;4966793;28;20330;-79
2021/05/08 00:11:48;;;;;;;;;;;19.80;48.50;;;;;;4952343;28;19926;-79
2021/05/08 00:14:14;;;;;;;;;;;19.80;48.50;;;;;;4959805;28;19934;-78
2021/05/08 00:16:40;;;;;;;;;;;19.70;48.50;;;;;;4980993;28;20275;-77
2021/05/08 00:19:06;;;;;;;;;;;19.80;48.50;;;;;;4967218;28;19926;-79
2021/05/08 00:21:35;;;;;;;;;;;19.80;48.50;;;;;;4968911;28;19937;-78
2021/05/08 00:24:05;;;;;;;;;;;19.70;48.40;;;;;;4973788;28;19926;-78
2021/05/08 00:26:31;;;;;;;;;;;19.70;48.60;;;;;;4968520;28;20147;-78
2021/05/08 00:28:58;;;;;;;;;;;19.70;48.50;;;;;;4964536;28;19926;-79
2021/05/08 00:31:24;;;;;;;;;;;19.70;48.50;;;;;;4970823;28;19930;-80
2021/05/08 00:33:51;;;;;;;;;;;19.70;48.40;;;;;;4982444;28;20453;-79
2021/05/08 00:36:17;;;;;;;;;;;19.70;48.40;;;;;;4969237;28;19934;-80
2021/05/08 00:38:43;;;;;;;;;;;19.70;48.40;;;;;;4967667;28;19937;-80
2021/05/08 00:41:09;;;;;;;;;;;19.70;48.40;;;;;;4969234;28;19927;-79
2021/05/08 00:43:35;;;;;;;;;;;19.70;48.40;;;;;;4983905;28;19941;-79
2021/05/08 00:46:02;;;;;;;;;;;19.60;48.30;;;;;;4968154;28;20375;-79
2021/05/08 00:48:28;;;;;;;;;;;19.60;48.50;;;;;;4959726;28;19926;-79
2021/05/08 00:50:56;;;;;;;;;;;19.70;48.50;;;;;;4970128;28;20264;-79
2021/05/08 00:53:23;;;;;;;;;;;19.60;48.40;;;;;;4982658;28;20028;-80
2021/05/08 00:55:50;;;;;;;;;;;19.60;48.40;;;;;;4964346;28;19992;-81
2021/05/08 00:58:17;;;;;;;;;;;19.60;48.30;;;;;;4977394;28;19936;-80
2021/05/08 01:00:43;;;;;;;;;;;19.60;48.30;;;;;;4974364;28;19926;-81
2021/05/08 01:03:12;;;;;;;;;;;19.60;48.30;;;;;;4965228;28;19933;-79
2021/05/08 01:05:38;;;;;;;;;;;19.60;48.40;;;;;;4967325;28;19933;-79
2021/05/08 01:08:06;;;;;;;;;;;19.60;48.40;;;;;;4957148;28;19930;-79
2021/05/08 01:10:33;;;;;;;;;;;19.60;48.30;;;;;;4975858;28;20469;-79
2021/05/08 01:13:01;;;;;;;;;;;19.60;48.30;;;;;;4970342;28;20043;-79
2021/05/08 01:15:28;;;;;;;;;;;19.60;48.30;;;;;;4983002;28;19926;-78
2021/05/08 01:17:54;;;;;;;;;;;19.60;48.30;;;;;;4968286;28;19926;-78
2021/05/08 01:20:22;;;;;;;;;;;19.60;48.30;;;;;;4965458;28;20934;-78
2021/05/08 01:22:51;;;;;;;;;;;19.60;48.30;;;;;;4959760;28;20367;-78
2021/05/08 01:25:23;;;;;;;;;;;19.60;48.30;;;;;;4960772;28;20373;-77
2021/05/08 01:27:50;;;;;;;;;;;19.60;48.30;;;;;;4960070;28;19937;-77
2021/05/08 01:30:18;;;;;;;;;;;19.50;48.20;;;;;;4976648;28;20053;-77
2021/05/08 01:32:45;;;;;;;;;;;19.50;48.20;;;;;;4967695;28;19926;-77
2021/05/08 01:35:11;;;;;;;;;;;19.60;48.30;;;;;;4965869;28;19926;-78
2021/05/08 01:37:37;;;;;;;;;;;19.50;48.10;;;;;;4964474;28;19937;-79
2021/05/08 01:40:06;;;;;;;;;;;19.50;48.10;;;;;;4965120;28;20286;-77
2021/05/08 01:42:33;;;;;;;;;;;19.50;48.10;;;;;;4966469;28;19927;-77
2021/05/08 01:45:13;;;;;;;;;;;19.50;48.10;;;;;;4965732;28;20418;-78
2021/05/08 01:47:39;;;;;;;;;;;19.50;48.10;;;;;;4968050;28;20293;-78
2021/05/08 01:50:07;;;;;;;;;;;19.50;48.10;;;;;;4954262;28;19938;-78
2021/05/08 01:52:34;;;;;;;;;;;19.50;48.00;;;;;;4967362;28;20175;-78
2021/05/08 01:55:01;;;;;;;;;;;19.50;48.10;;;;;;4965483;28;19996;-78
2021/05/08 01:57:41;;;;;;;;;;;19.50;48.10;;;;;;4968066;28;19930;-77
2021/05/08 02:00:10;;;;;;;;;;;19.50;48.10;;;;;;4964837;28;19937;-78
2021/05/08 02:02:36;;;;;;;;;;;19.50;48.10;;;;;;4964762;28;19934;-79
2021/05/08 02:05:04;;;;;;;;;;;19.50;48.00;;;;;;4965767;28;19933;-79
2021/05/08 02:07:30;;;;;;;;;;;19.50;48.70;;;;;;4974707;28;20422;-79
2021/05/08 02:09:56;;;;;;;;;;;19.40;47.90;;;;;;4966339;28;19968;-79
2021/05/08 02:12:27;;;;;;;;;;;19.40;48.00;;;;;;4956075;28;19937;-79
2021/05/08 02:14:55;;;;;;;;;;;19.40;48.50;;;;;;4961651;28;20199;-78
2021/05/08 02:17:22;;;;;;;;;;;19.40;48.00;;;;;;4965160;28;20532;-78
2021/05/08 02:19:48;;;;;;;;;;;19.50;48.00;;;;;;4962119;28;19926;-78
2021/05/08 02:22:15;;;;;;;;;;;19.40;48.00;;;;;;4965317;28;19938;-77
2021/05/08 02:24:41;;;;;;;;;;;19.40;47.90;;;;;;4964036;28;19926;-78
2021/05/08 02:27:07;;;;;;;;;;;19.40;47.90;;;;;;4965444;28;20410;-76
2021/05/08 02:29:34;;;;;;;;;;;19.40;47.90;;;;;;4962832;28;19926;-79
2021/05/08 02:32:00;;;;;;;;;;;19.40;47.90;;;;;;4967368;28;19930;-79
2021/05/08 02:34:26;;;;;;;;;;;19.50;48.00;;;;;;4963245;28;19933;-77
2021/05/08 02:36:52;;;;;;;;;;;19.40;48.00;;;;;;4967448;28;19984;-78
2021/05/08 02:39:19;;;;;;;;;;;19.40;48.00;;;;;;4980539;28;19926;-78
2021/05/08 02:41:45;;;;;;;;;;;19.40;47.90;;;;;;4964935;28;19930;-78
2021/05/08 02:44:11;;;;;;;;;;;19.40;48.00;;;;;;4964654;28;19937;-78
2021/05/08 02:46:37;;;;;;;;;;;19.40;47.90;;;;;;4967901;28;20014;-79
2021/05/08 02:49:03;;;;;;;;;;;19.40;47.90;;;;;;4965208;28;19929;-79
2021/05/08 02:51:30;;;;;;;;;;;19.40;47.90;;;;;;4964710;28;19931;-79
2021/05/08 02:53:56;;;;;;;;;;;19.40;47.80;;;;;;4965264;28;19988;-80
2021/05/08 02:56:22;;;;;;;;;;;19.40;47.80;;;;;;4967966;28;19933;-79
2021/05/08 02:58:49;;;;;;;;;;;19.40;47.90;;;;;;4965214;28;19926;-80
2021/05/08 03:01:15;;;;;;;;;;;19.40;47.90;;;;;;4963284;28;19927;-79
2021/05/08 03:03:41;;;;;;;;;;;19.40;47.90;;;;;;4963273;28;19926;-79
2021/05/08 03:06:07;;;;;;;;;;;19.40;47.90;;;;;;4963296;28;19934;-79
2021/05/08 03:08:33;;;;;;;;;;;19.40;47.80;;;;;;4964193;28;19934;-79
2021/05/08 03:11:00;;;;;;;;;;;19.40;47.80;;;;;;4965847;28;19934;-78
2021/05/08 03:13:26;;;;;;;;;;;19.40;47.80;;;;;;4963659;28;19926;-79
2021/05/08 03:15:52;;;;;;;;;;;19.40;47.90;;;;;;4967333;28;19931;-78
2021/05/08 03:18:19;;;;;;;;;;;19.40;47.80;;;;;;4963778;28;20386;-79
2021/05/08 03:20:45;;;;;;;;;;;19.30;47.80;;;;;;4967375;28;19961;-80
2021/05/08 03:23:12;;;;;;;;;;;19.30;47.80;;;;;;4962712;28;19974;-79
2021/05/08 03:25:38;;;;;;;;;;;19.40;47.80;;;;;;4967371;28;20013;-79
2021/05/08 03:28:04;;;;;;;;;;;19.30;47.80;;;;;;4963492;28;19926;-79
2021/05/08 03:30:30;;;;;;;;;;;19.40;47.80;;;;;;4966846;28;19937;-78
2021/05/08 03:32:57;;;;;;;;;;;19.30;47.70;;;;;;4962702;28;20386;-78
2021/05/08 03:35:23;;;;;;;;;;;19.30;47.70;;;;;;4966148;28;19926;-78
2021/05/08 03:37:49;;;;;;;;;;;19.30;47.70;;;;;;4964049;28;19933;-77
2021/05/08 03:40:15;;;;;;;;;;;19.30;47.70;;;;;;4963907;28;23393;-77
2021/05/08 03:42:44;;;;;;;;;;;19.30;47.70;;;;;;4968536;28;19936;-78
2021/05/08 03:45:10;;;;;;;;;;;19.30;47.80;;;;;;4967481;28;19949;-78
2021/05/08 03:47:37;;;;;;;;;;;19.30;47.70;;;;;;4965803;28;19930;-78
2021/05/08 03:50:03;;;;;;;;;;;19.30;47.70;;;;;;4965951;28;19927;-79
2021/05/08 03:52:31;;;;;;;;;;;19.30;47.70;;;;;;4965752;28;19953;-79
2021/05/08 03:54:57;;;;;;;;;;;19.30;47.70;;;;;;4967954;28;20436;-78
2021/05/08 03:57:23;;;;;;;;;;;19.30;47.70;;;;;;4983802;28;19933;-77
2021/05/08 03:59:50;;;;;;;;;;;19.30;47.70;;;;;;4983197;28;19933;-79
2021/05/08 04:02:17;;;;;;;;;;;19.30;47.80;;;;;;4966396;28;19930;-78
2021/05/08 04:04:43;;;;;;;;;;;19.30;47.80;;;;;;4982490;28;19930;-78
2021/05/08 04:07:09;;;;;;;;;;;19.30;47.80;;;;;;4982894;28;19937;-78
2021/05/08 04:09:35;;;;;;;;;;;19.30;47.80;;;;;;4966974;28;20012;-77
2021/05/08 04:12:01;;;;;;;;;;;19.30;47.80;;;;;;4967222;28;20374;-77
2021/05/08 04:14:27;;;;;;;;;;;19.30;47.80;;;;;;4968338;28;19933;-78
2021/05/08 04:16:54;;;;;;;;;;;19.30;48.40;;;;;;4966885;28;19934;-79
2021/05/08 04:19:20;;;;;;;;;;;19.30;47.70;;;;;;4969632;28;19934;-83
2021/05/08 04:21:48;;;;;;;;;;;19.30;47.70;;;;;;4969005;28;19926;-78
2021/05/08 04:24:15;;;;;;;;;;;19.30;47.70;;;;;;4983261;28;19933;-78
2021/05/08 04:26:41;;;;;;;;;;;19.30;47.70;;;;;;4959451;28;20024;-77
2021/05/08 04:29:07;;;;;;;;;;;19.30;47.60;;;;;;4967794;28;19931;-80
2021/05/08 04:31:35;;;;;;;;;;;19.30;47.70;;;;;;4968195;28;19930;-79
2021/05/08 04:34:03;;;;;;;;;;;19.30;48.00;;;;;;4960624;28;19946;-80
2021/05/08 04:36:29;;;;;;;;;;;19.30;47.50;;;;;;4959031;28;19953;-78
2021/05/08 04:38:55;;;;;;;;;;;19.30;47.40;;;;;;4947160;28;19941;-77
2021/05/08 04:41:23;;;;;;;;;;;19.20;47.50;;;;;;4963557;28;20549;-79
2021/05/08 04:43:49;;;;;;;;;;;19.20;47.50;;;;;;4968322;28;20298;-79
2021/05/08 04:46:16;;;;;;;;;;;19.30;47.50;;;;;;4976329;28;19934;-79
2021/05/08 04:48:42;;;;;;;;;;;19.30;47.60;;;;;;4967326;28;20146;-79
2021/05/08 04:51:08;;;;;;;;;;;19.30;47.60;;;;;;4966655;28;19951;-78
2021/05/08 04:53:35;;;;;;;;;;;19.30;47.60;;;;;;4965769;28;20293;-79
2021/05/08 04:56:01;;;;;;;;;;;19.30;47.70;;;;;;4966437;28;20627;-80
2021/05/08 04:58:27;;;;;;;;;;;19.40;47.70;;;;;;4962878;28;20006;-79
2021/05/08 05:00:54;;;;;;;;;;;19.40;47.70;;;;;;4967575;28;19930;-80
2021/05/08 05:03:20;;;;;;;;;;;19.40;47.50;;;;;;4963088;28;20338;-79
2021/05/08 05:05:46;;;;;;;;;;;19.40;47.50;;;;;;4966624;28;20356;-79
2021/05/08 05:08:21;;;;;;;;;;;19.40;47.50;;;;;;4965508;28;20461;-81
2021/05/08 05:10:48;;;;;;;;;;;19.50;47.60;;;;;;4945522;28;20011;-78
2021/05/08 05:13:14;;;;;;;;;;;19.40;47.30;;;;;;4961278;28;19931;-78
2021/05/08 05:15:40;;;;;;;;;;;19.50;47.30;;;;;;4958633;28;20331;-79
2021/05/08 05:18:06;;;;;;;;;;;19.50;47.30;;;;;;4966274;28;20264;-79
2021/05/08 05:20:52;;;;;;;;;;;19.50;47.20;;;;;;4966610;28;19927;-80
2021/05/08 05:23:18;;;;;;;;;;;19.50;47.20;;;;;;4948358;28;19961;-83
2021/05/08 05:25:45;;;;;;;;;;;19.50;47.10;;;;;;4954748;28;19949;-83
2021/05/08 05:28:36;;;;;;;;;;;19.50;47.00;;;;;;4964361;28;20974;-81
2021/05/08 05:31:03;;;;;;;;;;;19.60;47.00;;;;;;4956986;28;19926;-80
2021/05/08 05:33:29;;;;;;;;;;;19.60;47.00;;;;;;4981496;28;20294;-78
2021/05/08 05:35:55;;;;;;;;;;;19.60;46.90;;;;;;4967819;28;19984;-77
2021/05/08 05:38:22;;;;;;;;;;;19.60;46.80;;;;;;4963907;28;20399;-79
2021/05/08 05:40:50;;;;;;;;;;;19.60;46.80;;;;;;4963849;28;19938;-78
2021/05/08 05:43:18;;;;;;;;;;;19.60;46.70;;;;;;4962378;28;19934;-77
2021/05/08 05:45:47;;;;;;;;;;;19.60;46.90;;;;;;4942472;28;19986;-78
2021/05/08 05:48:13;;;;;;;;;;;19.70;46.90;;;;;;4969139;28;19930;-78
2021/05/08 05:50:41;;;;;;;;;;;19.70;46.70;;;;;;4948799;28;19930;-77
2021/05/08 05:53:07;;;;;;;;;;;19.70;46.70;;;;;;4964024;28;19930;-78
2021/05/08 05:55:33;;;;;;;;;;;19.70;46.70;;;;;;4966286;28;19945;-77
2021/05/08 05:58:00;;;;;;;;;;;19.70;46.70;;;;;;4955301;28;20004;-78
2021/05/08 06:00:31;;;;;;;;;;;19.70;46.70;;;;;;4954336;28;20318;-80
2021/05/08 06:02:57;;;;;;;;;;;19.70;46.60;;;;;;4965932;28;19933;-78
2021/05/08 06:05:23;;;;;;;;;;;19.70;46.50;;;;;;4967059;28;19934;-78
2021/05/08 06:07:49;;;;;;;;;;;19.70;46.40;;;;;;4964989;28;20410;-79
2021/05/08 06:10:16;;;;;;;;;;;19.80;46.40;;;;;;4967623;28;19932;-78
2021/05/08 06:12:42;;;;;;;;;;;19.80;46.40;;;;;;4965412;28;19934;-80
2021/05/08 06:15:10;;;;;;;;;;;19.80;46.30;;;;;;4965030;28;19926;-77
2021/05/08 06:17:37;;;;;;;;;;;19.80;46.40;;;;;;4963586;28;19930;-78
2021/05/08 06:20:04;;;;;;;;;;;19.80;46.30;;;;;;4966623;28;19926;-79
2021/05/08 06:22:30;;;;;;;;;;;19.80;46.40;;;;;;4963792;28;19926;-79
2021/05/08 06:24:56;;;;;;;;;;;19.80;46.30;;;;;;4964193;28;20295;-78
2021/05/08 06:27:23;;;;;;;;;;;19.90;46.60;;;;;;4974532;28;19934;-77
2021/05/08 06:29:51;;;;;;;;;;;19.90;46.20;;;;;;4965925;28;19953;-78
2021/05/08 06:32:17;;;;;;;;;;;19.90;46.20;;;;;;4981067;28;19941;-77
2021/05/08 06:34:43;;;;;;;;;;;19.90;46.20;;;;;;4957486;28;19969;-77
2021/05/08 06:37:09;;;;;;;;;;;19.80;46.10;;;;;;4963583;28;20410;-77
2021/05/08 06:39:35;;;;;;;;;;;19.80;46.20;;;;;;4964529;28;19934;-78
2021/05/08 06:42:02;;;;;;;;;;;19.80;46.20;;;;;;4962005;28;19930;-78
2021/05/08 06:44:28;;;;;;;;;;;19.80;46.20;;;;;;4965942;28;20393;-77
2021/05/08 06:46:54;;;;;;;;;;;19.80;46.20;;;;;;4964133;28;19933;-77
2021/05/08 06:49:21;;;;;;;;;;;19.80;46.20;;;;;;4980664;28;19977;-79
2021/05/08 06:51:47;;;;;;;;;;;19.70;46.10;;;;;;4963693;28;20285;-77
2021/05/08 06:54:13;;;;;;;;;;;19.70;46.20;;;;;;4956493;28;20391;-77
2021/05/08 06:56:40;;;;;;;;;;;19.70;46.10;;;;;;4966188;28;19933;-79
2021/05/08 06:59:06;;;;;;;;;;;19.70;46.20;;;;;;4963810;28;20634;-77
2021/05/08 07:01:32;;;;;;;;;;;19.70;46.00;;;;;;4963951;28;19949;-78
2021/05/08 07:04:01;;;;;;;;;;;19.70;46.00;;;;;;4961871;28;19933;-80
2021/05/08 07:06:34;;;;;;;;;;;19.80;46.00;;;;;;4963133;28;19930;-80
2021/05/08 07:09:00;;;;;;;;;;;19.80;45.90;;;;;;4958740;28;19937;-79
2021/05/08 07:11:26;;;;;;;;;;;19.80;45.90;;;;;;4972719;28;19926;-79
2021/05/08 07:13:52;;;;;;;;;;;19.80;45.90;;;;;;4962403;28;19934;-79
2021/05/08 07:16:19;;;;;;;;;;;19.80;45.80;;;;;;4966041;28;19930;-78
2021/05/08 07:18:47;;;;;;;;;;;19.90;45.80;;;;;;4955727;28;20343;-78
2021/05/08 07:21:14;;;;;;;;;;;19.80;45.70;;;;;;4961764;28;20556;-78
2021/05/08 07:23:40;;;;;;;;;;;19.80;45.90;;;;;;4959748;28;19961;-78
2021/05/08 07:26:07;;;;;;;;;;;19.90;45.90;;;;;;4964125;28;19931;-78
2021/05/08 07:28:33;;;;;;;;;;;19.90;45.80;;;;;;4966663;28;19933;-77
2021/05/08 07:30:59;;;;;;;;;;;19.90;45.60;;;;;;4958482;28;19932;-79
2021/05/08 07:33:25;;;;;;;;;;;19.90;46.00;;;;;;4965544;28;19926;-80
2021/05/08 07:35:52;;;;;;;;;;;20.00;45.80;;;;;;4965884;28;19933;-81
2021/05/08 07:38:18;;;;;;;;;;;20.00;45.90;;;;;;4966877;28;19937;-82
2021/05/08 07:40:48;;;;;;;;;;;20.00;45.90;;;;;;4968674;28;19930;-78
2021/05/08 07:43:16;;;;;;;;;;;20.00;45.50;;;;;;4966493;28;19926;-77
2021/05/08 07:45:42;;;;;;;;;;;20.10;45.50;;;;;;4965677;28;19941;-77
2021/05/08 07:48:09;;;;;;;;;;;20.10;45.30;;;;;;4966670;28;20409;-78
2021/05/08 07:50:35;;;;;;;;;;;20.00;45.50;;;;;;4966570;28;20071;-77
2021/05/08 07:53:02;;;;;;;;;;;20.10;45.30;;;;;;4964665;28;19933;-79
2021/05/08 07:55:28;;;;;;;;;;;20.10;45.40;;;;;;4966497;28;19926;-78
2021/05/08 07:57:54;;;;;;;;;;;20.20;45.90;;;;;;4966168;28;20637;-80
2021/05/08 08:00:21;;;;;;;;;;;20.10;45.80;;;;;;4967149;28;19937;-79
2021/05/08 08:02:49;;;;;;;;;;;20.20;45.70;;;;;;4963440;28;19933;-79
2021/05/08 08:05:16;;;;;;;;;;;20.20;45.50;;;;;;4968062;28;19926;-79
2021/05/08 08:07:42;;;;;;;;;;;20.20;45.30;;;;;;4969596;28;20824;-81
2021/05/08 08:10:09;;;;;;;;;;;20.20;45.20;;;;;;4967061;28;19926;-78
2021/05/08 08:12:38;;;;;;;;;;;20.20;45.10;;;;;;4980498;28;19926;-81
2021/05/08 08:15:06;;;;;;;;;;;20.20;45.10;;;;;;4966294;28;19946;-79
2021/05/08 08:17:33;;;;;;;;;;;20.20;45.80;;;;;;4963481;28;20264;-77
2021/05/08 08:20:00;;;;;;;;;;;20.20;44.90;;;;;;4966767;28;19934;-77
2021/05/08 08:22:26;;;;;;;;;;;20.20;45.10;;;;;;4959592;28;19934;-77
2021/05/08 08:24:53;;;;;;;;;;;20.30;44.90;;;;;;4971588;28;20404;-79
2021/05/08 08:27:20;;;;;;;;;;;20.30;44.90;;;;;;4961600;28;19957;-78
2021/05/08 08:29:46;;;;;;;;;;;20.20;44.80;;;;;;4964377;28;19932;-79
2021/05/08 08:32:12;;;;;;;;;;;20.30;44.70;;;;;;4962565;28;19957;-77
2021/05/08 08:34:41;;;;;;;;;;;20.30;44.70;;;;;;4964823;28;19930;-77
2021/05/08 08:37:08;;;;;;;;;;;20.30;44.50;;;;;;4966709;28;19934;-77
2021/05/08 08:39:35;;;;;;;;;;;20.30;44.50;;;;;;4965602;28;20298;-77
2021/05/08 08:42:02;;;;;;;;;;;20.30;44.80;;;;;;4953431;28;19992;-78
2021/05/08 08:44:28;;;;;;;;;;;20.30;44.80;;;;;;4950689;28;19934;-78
2021/05/08 08:46:55;;;;;;;;;;;20.40;45.10;;;;;;4973973;28;20272;-77
2021/05/08 08:49:23;;;;;;;;;;;20.30;44.90;;;;;;4946086;28;20636;-77
2021/05/08 08:51:50;;;;;;;;;;;20.30;45.20;;;;;;4961505;28;19964;-77
2021/05/08 08:54:17;;;;;;;;;;;20.30;45.80;;;;;;4960013;28;20493;-77
2021/05/08 08:56:47;;;;;;;;;;;20.40;45.20;;;;;;4961460;28;19958;-78
2021/05/08 08:59:18;;;;;;;;;;;20.40;45.50;;;;;;4967523;28;19933;-77
2021/05/08 09:01:47;;;;;;;;;;;20.40;45.00;;;;;;4960433;28;19934;-77
2021/05/08 09:04:14;;;;;;;;;;;20.40;45.00;;;;;;4967039;28;19930;-79
2021/05/08 09:06:41;;;;;;;;;;;20.40;44.90;;;;;;4963617;28;19930;-79
2021/05/08 09:09:10;;;;;;;;;;;20.40;45.00;;;;;;4966093;28;19934;-78
2021/05/08 09:11:49;;;;;;;;;;;20.40;45.00;;;;;;4961021;28;20020;-79
2021/05/08 09:14:25;;;;;;;;;;;20.40;44.60;;;;;;4965532;28;19926;-79
2021/05/08 09:17:09;;;;;;;;;;;20.40;44.40;;;;;;4964294;28;20449;-80
2021/05/08 09:22:38;;;;;;;;;;;20.50;44.40;;;;;;4990326;22;19961;-82
2021/05/08 09:25:16;;;;;;;;;;;20.50;44.50;;;;;;4958474;28;19976;-81
2021/05/08 09:28:21;;;;;;;;;;;20.50;44.60;;;;;;4958298;28;19929;-80
2021/05/08 09:32:19;;;;;;;;;;;20.50;47.70;;;;;;4878081;28;19978;-81
2021/05/08 09:35:08;;;;;;;;;;;20.60;48.60;;;;;;4889766;28;20338;-83
2021/05/08 10:00:02;;;;;;;;;;;20.60;42.70;;;;;;6009095;23;20185;-80
2021/05/08 10:02:33;;;;;;;;;;;20.50;42.60;;;;;;4958381;28;20034;-84
2021/05/08 10:05:39;;;;;;;;;;;20.50;43.10;;;;;;4963617;28;19954;-85
2021/05/08 10:08:06;;;;;;;;;;;20.50;45.70;;;;;;4968907;28;20788;-90
2021/05/08 10:10:36;;;;;;;;;;;20.60;45.30;;;;;;4970707;28;19949;-84
2021/05/08 10:37:07;;;;;;;;;;;20.80;44.30;;;;;;4964020;28;19997;-85
2021/05/08 10:40:06;;;;;;;;;;;20.90;44.40;;;;;;4965149;28;19933;-83
2021/05/08 10:42:33;;;;;;;;;;;20.90;44.30;;;;;;4926256;28;19937;-86
2021/05/08 10:45:00;;;;;;;;;;;20.90;44.20;;;;;;4966405;28;19945;-87
2021/05/08 10:47:45;;;;;;;;;;;20.90;43.80;;;;;;4967356;28;19937;-85
2021/05/08 10:50:30;;;;;;;;;;;20.80;43.50;;;;;;4955166;28;20194;-86
2021/05/08 10:53:03;;;;;;;;;;;20.80;43.50;;;;;;4963916;28;20248;-85
2021/05/08 10:55:30;;;;;;;;;;;20.80;43.30;;;;;;4959898;28;20539;-84
2021/05/08 10:58:25;;;;;;;;;;;20.70;43.20;;;;;;4964945;28;19934;-84
2021/05/08 11:00:57;;;;;;;;;;;20.70;43.30;;;;;;4936811;28;20400;-87
2021/05/08 11:03:28;;;;;;;;;;;20.70;43.30;;;;;;4970001;28;21409;-86
2021/05/08 11:06:04;;;;;;;;;;;20.70;43.20;;;;;;4969437;28;19934;-85
2021/05/08 11:08:30;;;;;;;;;;;20.70;43.80;;;;;;4966586;28;19948;-84
2021/05/08 11:11:03;;;;;;;;;;;20.70;43.40;;;;;;4963243;28;19948;-85
2021/05/08 11:13:40;;;;;;;;;;;20.70;43.50;;;;;;4963303;28;20296;-82
2021/05/08 11:16:14;;;;;;;;;;;20.70;43.90;;;;;;4969489;28;19933;-82
2021/05/08 11:18:45;;;;;;;;;;;20.70;44.00;;;;;;4953590;28;19926;-83
2021/05/08 11:21:14;;;;;;;;;;;20.70;44.10;;;;;;4945404;28;19926;-87
2021/05/08 11:23:47;;;;;;;;;;;20.70;44.80;;;;;;4941232;28;19982;-85
2021/05/08 11:26:28;;;;;;;;;;;20.70;45.50;;;;;;4936023;28;19930;-82
2021/05/08 11:28:55;;;;;;;;;;;20.70;46.30;;;;;;4946198;28;20462;-82
2021/05/08 11:31:43;;;;;;;;;;;20.70;46.90;;;;;;4947549;28;20140;-82
2021/05/08 11:34:10;;;;;;;;;;;20.80;47.40;;;;;;4939175;28;20292;-84
2021/05/08 12:13:11;;;;;;;;;;;21.10;48.80;;;;;;4886523;29;20024;-80
2021/05/08 12:16:07;;;;;;;;;;;21.10;48.70;;;;;;4846856;29;19932;-83
2021/05/08 12:18:55;;;;;;;;;;;21.10;49.30;;;;;;4898951;29;19995;-81
2021/05/08 12:21:42;;;;;;;;;;;21.20;49.10;;;;;;4903272;29;20356;-88
2021/05/08 12:24:21;;;;;;;;;;;21.30;49.20;;;;;;4875861;29;19943;-84
2021/05/08 12:27:31;;;;;;;;;;;21.30;49.00;;;;;;4859537;29;19928;-82
2021/05/08 12:30:00;;;;;;;;;;;21.40;49.00;;;;;;4894888;29;20478;-80
2021/05/08 12:32:31;;;;;;;;;;;21.40;48.70;;;;;;4885042;29;19928;-81
2021/05/08 12:34:58;;;;;;;;;;;21.40;48.50;;;;;;4899755;29;19955;-84
2021/05/08 12:37:24;;;;;;;;;;;21.40;48.30;;;;;;4901178;29;19931;-83
2021/05/08 12:39:52;;;;;;;;;;;21.50;48.30;;;;;;4893657;29;19927;-84
2021/05/08 12:42:37;;;;;;;;;;;21.50;48.00;;;;;;4897025;29;19946;-85
2021/05/08 12:45:03;;;;;;;;;;;21.60;48.10;;;;;;4897367;29;21533;-81
2021/05/08 12:47:35;;;;;;;;;;;21.50;47.80;;;;;;4889324;29;20041;-84
2021/05/08 12:50:25;;;;;;;;;;;21.60;47.80;;;;;;4891453;29;19938;-87
2021/05/08 12:53:09;;;;;;;;;;;21.60;48.10;;;;;;4912173;29;19927;-87
2021/05/08 12:55:36;;;;;;;;;;;21.60;47.90;;;;;;4888462;29;19946;-81
2021/05/08 12:58:09;;;;;;;;;;;21.60;47.90;;;;;;4890064;29;19931;-80
2021/05/08 13:00:39;;;;;;;;;;;21.70;49.10;;;;;;4864541;29;19931;-83
2021/05/08 13:03:18;;;;;;;;;;;21.60;50.60;;;;;;4903992;29;19931;-82
2021/05/08 13:05:45;;;;;;;;;;;21.50;51.40;;;;;;4885013;29;20004;-85
2021/05/08 13:08:13;;;;;;;;;;;21.30;51.60;;;;;;4884879;29;19931;-83
2021/05/08 13:10:40;;;;;;;;;;;21.20;51.80;;;;;;4888300;29;20277;-82
2021/05/08 13:13:24;;;;;;;;;;;21.10;52.00;;;;;;4896727;29;20004;-85
2021/05/08 13:15:54;;;;;;;;;;;21.10;52.50;;;;;;4876287;29;19931;-81
2021/05/08 13:18:22;;;;;;;;;;;21.00;52.10;;;;;;4906417;29;20594;-83
2021/05/08 13:20:48;;;;;;;;;;;21.00;52.30;;;;;;4907100;29;19934;-82
2021/05/08 13:23:15;;;;;;;;;;;20.90;52.00;;;;;;4906343;29;19936;-81
2021/05/08 13:25:41;;;;;;;;;;;20.90;52.10;;;;;;4885290;29;19931;-83
2021/05/08 13:28:07;;;;;;;;;;;20.80;52.10;;;;;;4904281;29;19935;-84
2021/05/08 13:30:34;;;;;;;;;;;20.80;52.50;;;;;;4909257;29;20450;-83
2021/05/08 13:33:12;;;;;;;;;;;20.80;52.60;;;;;;4908384;29;19982;-84
2021/05/08 13:35:39;;;;;;;;;;;20.80;52.60;;;;;;4906711;29;20426;-83
2021/05/08 13:38:06;;;;;;;;;;;20.80;52.00;;;;;;4910221;29;20430;-84
2021/05/08 13:40:32;;;;;;;;;;;20.80;52.30;;;;;;4909817;29;20363;-84
2021/05/08 13:42:58;;;;;;;;;;;20.80;53.80;;;;;;4904303;29;19935;-84
2021/05/08 13:45:27;;;;;;;;;;;20.80;53.30;;;;;;4909843;29;19934;-84
2021/05/08 13:47:54;;;;;;;;;;;20.80;52.80;;;;;;4906393;29;19947;-83
2021/05/08 13:50:23;;;;;;;;;;;20.80;52.80;;;;;;4908250;29;20022;-83
2021/05/08 13:52:49;;;;;;;;;;;20.70;53.10;;;;;;4902527;29;19938;-83
2021/05/08 13:55:15;;;;;;;;;;;20.70;53.30;;;;;;4909666;29;19927;-84
2021/05/08 13:57:45;;;;;;;;;;;20.80;53.30;;;;;;4907187;29;19941;-84
2021/05/08 14:00:12;;;;;;;;;;;20.70;53.00;;;;;;4906837;29;19931;-84
2021/05/08 14:02:38;;;;;;;;;;;20.70;53.20;;;;;;4907253;29;19937;-84
2021/05/08 14:05:05;;;;;;;;;;;20.70;53.70;;;;;;4909288;29;19931;-84
2021/05/08 14:07:31;;;;;;;;;;;20.70;53.30;;;;;;4904464;29;19931;-81
2021/05/08 14:09:57;;;;;;;;;;;20.70;53.50;;;;;;4908706;29;19927;-82
2021/05/08 14:15:38;;;;;;;;;;;20.60;53.50;;;;;;4875539;29;20554;-81
2021/05/08 14:18:04;;;;;;;;;;;20.70;53.20;;;;;;4906135;29;19931;-80
2021/05/08 14:20:30;;;;;;;;;;;20.70;53.70;;;;;;4899890;29;19939;-80
2021/05/08 14:22:57;;;;;;;;;;;20.70;53.00;;;;;;4896332;29;19987;-80
2021/05/08 14:25:23;;;;;;;;;;;20.70;53.20;;;;;;4900687;29;20357;-78
2021/05/08 14:27:49;;;;;;;;;;;20.70;53.30;;;;;;4905890;29;19941;-79
2021/05/08 14:30:15;;;;;;;;;;;20.80;53.20;;;;;;4892880;29;19983;-79
2021/05/08 14:32:42;;;;;;;;;;;20.80;53.40;;;;;;4892238;29;19938;-81
2021/05/08 14:35:09;;;;;;;;;;;20.80;53.60;;;;;;4901416;29;19975;-83
2021/05/08 14:37:36;;;;;;;;;;;20.80;53.30;;;;;;4881886;29;20014;-84
2021/05/08 14:40:06;;;;;;;;;;;20.90;53.80;;;;;;4908748;29;20556;-84
2021/05/08 14:42:38;;;;;;;;;;;20.90;53.80;;;;;;4896917;29;19994;-91
2021/05/08 14:45:04;;;;;;;;;;;20.90;53.80;;;;;;4904983;29;19935;-86
2021/05/08 14:47:32;;;;;;;;;;;20.90;53.90;;;;;;4903036;29;20331;-83
2021/05/08 14:50:00;;;;;;;;;;;20.90;54.00;;;;;;4900638;29;19932;-83
2021/05/08 14:52:27;;;;;;;;;;;20.90;54.00;;;;;;4909120;29;19927;-81
2021/05/08 14:54:53;;;;;;;;;;;20.90;53.80;;;;;;4900653;29;20431;-80
2021/05/08 14:57:22;;;;;;;;;;;20.90;53.70;;;;;;4898997;29;20413;-81
2021/05/08 14:59:49;;;;;;;;;;;21.00;54.40;;;;;;4907786;29;19927;-81
2021/05/08 15:02:18;;;;;;;;;;;21.00;53.80;;;;;;4906326;29;19927;-82
2021/05/08 15:04:45;;;;;;;;;;;21.00;53.70;;;;;;4891776;29;19974;-82
2021/05/08 15:07:11;;;;;;;;;;;21.00;53.70;;;;;;4905974;29;20387;-80
2021/05/08 15:09:39;;;;;;;;;;;21.00;53.50;;;;;;4891420;29;19936;-81
2021/05/08 15:26:17;;;;;;;;;;;20.90;53.40;;;;;;5067751;23;20391;-84
2021/05/08 15:29:09;;;;;;;;;;;21.00;53.40;;;;;;4856824;29;19932;-85
2021/05/08 15:31:38;;;;;;;;;;;20.90;53.20;;;;;;4916219;29;19931;-88
2021/05/08 15:34:26;;;;;;;;;;;20.90;53.10;;;;;;4894717;28;19938;-87
2021/05/08 15:36:53;;;;;;;;;;;20.90;53.20;;;;;;4908495;29;19927;-87
2021/05/08 15:39:26;;;;;;;;;;;20.80;53.40;;;;;;4894573;29;19931;-85
2021/05/08 15:41:53;;;;;;;;;;;20.80;53.10;;;;;;4913598;29;19927;-88
2021/05/08 15:44:19;;;;;;;;;;;20.80;53.40;;;;;;4913856;29;20291;-87
2021/05/08 15:46:51;;;;;;;;;;;20.80;53.40;;;;;;4896003;28;19939;-87
2021/05/08 15:49:40;;;;;;;;;;;20.80;53.50;;;;;;4885172;29;19946;-85
2021/05/08 15:52:06;;;;;;;;;;;20.70;53.60;;;;;;4912232;29;19930;-85
2021/05/08 15:54:33;;;;;;;;;;;20.70;53.70;;;;;;4926921;29;19927;-86
2021/05/08 15:56:59;;;;;;;;;;;20.70;53.60;;;;;;4916420;29;19970;-86
2021/05/08 16:42:23;;;;;;;;;;;20.60;54.50;;;;;;4876827;29;19928;-87
2021/05/08 16:45:14;;;;;;;;;;;20.60;54.50;;;;;;4831485;29;19942;-92
2021/05/08 16:47:43;;;;;;;;;;;20.70;54.10;;;;;;4875250;29;19984;-89
2021/05/08 16:50:13;;;;;;;;;;;20.70;53.90;;;;;;4900513;29;19922;-90
2021/05/08 16:52:43;;;;;;;;;;;20.70;53.60;;;;;;4897331;29;19953;-89
2021/05/08 17:34:44;;;;;;;;;;;21.20;52.70;;;;;;5908312;23;19921;-87